• Join FlightAware (Why Join?)
  • Login
  • US Flag 
04:27PM EDT


 

Airport Tracker/Info


-or-


 

Live Flight TrackerFlight Track Log ✈ N7094V ✈ 05-Apr-2014 ✈ KEYW - KPIE

Flight Track Log - Related Links

Times and Time Zones

All times are in EDT time to prevent confusion due to time zone crossing. See the N7094V flight status page for this flight to view local times or setup timezone preferences in your user account.

Time Position Orientation Groundspeed Altitude Reporting Facility
EDT Latitude Longitude Course Direction KTS MPH feet Rate Location/Type
12:35PM 24.7625 -81.7439 16° North 130 150 4,300  Level Miami Center
12:36PM 24.8300 -81.7067 17° North  Level FlightAware Approximate
12:36PM 24.7961 -81.7450 358° North 130 150 4,800  Level Miami Center
12:37PM 24.8687 -81.6938 17° North  Level FlightAware Approximate
12:37PM 24.8294 -81.7442 North 125 144 5,200  Level Miami Center
12:38PM 24.9075 -81.6808 17° North  Level FlightAware Approximate
12:38PM 24.8647 -81.7525 348° North 125 144 5,600  Level Miami Center
12:39PM 24.9462 -81.6679 17° North  Level FlightAware Approximate
12:39PM 24.8983 -81.7469 North 125 144 6,100  Level Miami Center
12:40PM 24.9852 -81.6557 16° North  Level FlightAware Approximate
12:40PM 24.9356 -81.7531 352° North 120 138 6,100  Level Miami Center
12:41PM 24.9775 -81.7522 North 131 151 6,000 -60 Descending Miami Center
12:42PM 25.0192 -81.7539 358° North 136 157 6,000  Level Miami Center
12:43PM 25.0589 -81.7533 North 142 163 6,000  Level Miami Center
12:44PM 25.1008 -81.7503 North 142 163 6,000  Level Miami Center
12:45PM 25.1422 -81.7544 355° North 142 163 6,000  Level Miami Center
12:46PM 25.1819 -81.7558 358° North 142 163 6,000  Level Miami Center
12:47PM 25.2236 -81.7575 358° North 142 163 6,100  Climbing Miami Center
12:48PM 25.2656 -81.7569 North 142 163 6,100 -60 Level Miami Center
12:49PM 25.3072 -81.7564 North 142 163 6,000 -60 Descending Miami Center
12:50PM 25.3469 -81.7511 North 142 163 6,000  Level Miami Center
12:51PM 25.3889 -81.7506 North 142 163 6,100  Climbing Miami Center
12:52PM 25.4308 -81.7431 North 142 163 6,000 -60 Descending Miami Center
12:53PM 25.4722 -81.7514 350° North 142 163 6,000 -60 Level Miami Center
12:54PM 25.5161 -81.7578 353° North 142 163 5,900  Descending Miami Center
12:55PM 25.5578 -81.7594 358° North 142 163 6,000  Climbing Miami Center
12:56PM 25.6017 -81.7544 North 142 163 6,000  Level Miami Center
12:57PM 25.6414 -81.7561 358° North 142 163 6,100  Climbing Miami Center
12:58PM 25.6894 -81.7556 North 142 163 6,100 -60 Level Miami Center
12:59PM 25.7269 -81.7572 358° North 142 163 6,000 -60 Descending Miami Center
01:00PM 25.7686 -81.7567 North 142 163 6,000  Level Miami Center
01:01PM 25.8122 -81.7631 352° North 142 163 6,000 -60 Level Miami Center
01:02PM 25.8539 -81.7717 349° North 142 163 5,900 -60 Descending Miami Center
01:03PM 25.8953 -81.7825 347° North 147 169 5,900 -60 Level Miami Center
01:04PM 25.9367 -81.7936 346° North 142 163 5,800 60 Descending Miami Center
01:06PM 26.0189 -81.8269 North 147 169 6,100  Climbing Miami Center
01:27PM 26.8667 -82.0667 325° Northwest 154 177 6,100  Level Tampa TRACON
01:28PM 26.8311 -81.9900 326° Northwest  Level FlightAware Approximate
01:28PM 26.9000 -82.0833 336° Northwest 147 169 6,100  Level Tampa TRACON
01:29PM 26.8639 -82.0146 326° Northwest  Level FlightAware Approximate
01:29PM 26.9333 -82.1000 336° Northwest 149 171 6,100  Level Tampa TRACON
01:30PM 26.8968 -82.0392 326° Northwest  Level FlightAware Approximate
01:30PM 26.9833 -82.1167 343° North 150 173 6,000  Level Tampa TRACON
01:31PM 26.9296 -82.0639 326° Northwest  Level FlightAware Approximate
01:31PM 27.0167 -82.1500 318° Northwest 149 171 5,900  Level Tampa TRACON
01:32PM 26.9604 -82.0916 325° Northwest  Level FlightAware Approximate
01:32PM 27.0500 -82.1667 336° Northwest 151 174 5,900  Level Tampa TRACON
01:33PM 27.0833 -82.1833 336° Northwest 151 174 6,000  Climbing Tampa TRACON
01:34PM 27.1333 -82.2167 329° Northwest 147 169 6,000 -60 Level Tampa TRACON
01:35PM 27.1667 -82.2333 336° Northwest 147 169 5,900 -60 Descending Tampa TRACON
01:36PM 27.2000 -82.2667 318° Northwest 148 170 5,900 60 Level Tampa TRACON
01:37PM 27.2333 -82.2833 336° Northwest 147 169 6,100  Climbing Tampa TRACON
01:38PM 27.2667 -82.3000 336° Northwest 145 167 5,900 -240 Descending Tampa TRACON
01:39PM 27.3000 -82.3167 336° Northwest 146 168 5,700 -780 Descending Tampa TRACON
01:40PM 27.3500 -82.3500 329° Northwest 174 200 4,300 -900 Descending Tampa TRACON
01:41PM 27.3833 -82.3833 318° Northwest 160 184 4,000 -480 Descending Tampa TRACON
01:42PM 27.4167 -82.4000 336° Northwest 162 186 3,500 -480 Descending Tampa TRACON
01:43PM 27.4500 -82.4500 307° West 160 184 3,000 -240 Descending Tampa TRACON
01:44PM 27.4833 -82.4833 318° Northwest 165 190 3,000  Level Tampa TRACON
01:45PM 27.5167 -82.5000 336° Northwest 156 180 3,000  Level Tampa TRACON
01:46PM 27.5500 -82.5333 318° Northwest 146 168 3,000  Level Tampa TRACON
01:47PM 27.5833 -82.5500 336° Northwest 152 175 3,000  Level Tampa TRACON
01:48PM 27.6167 -82.5833 318° Northwest 154 177 3,000  Level Tampa TRACON
01:49PM 27.6500 -82.6167 318° Northwest 154 177 3,000  Level Tampa TRACON
01:50PM 27.6833 -82.6500 318° Northwest 154 177 3,000  Level Tampa TRACON
01:51PM 27.7333 -82.6667 344° North 149 171 3,000 -180 Level Tampa TRACON
01:52PM 27.7667 -82.6833 336° Northwest 154 177 2,700 -360 Descending Tampa TRACON
01:53PM 27.8000 -82.7000 336° Northwest 171 197 2,400 -900 Descending Tampa TRACON
01:54PM 27.8500 -82.6833 16° North 153 176 1,100 -960 Descending Tampa TRACON
01:55PM 27.8833 -82.6833 360° North 87 100 400 -240 Descending Tampa TRACON
01:56PM 27.9000 -82.6833 360° North 64 74 700 300 Climbing Tampa TRACON
01:59PM 27.9100 -82.6875 270° West  Level Estimated
02:06PM 27.9100 -82.6875 North  Level Estimated
02:07PM 27.9100 -82.6875 160° South  Level Estimated
02:08PM 27.9100 -82.6875 North  Level Estimated
02:09PM 27.9100 -82.6875 160° South  Level Estimated
02:10PM 27.9100 -82.6875 North  Level Estimated
02:11PM 27.9100 -82.6875 160° South  Level Estimated